sensor_id;sensor_type;location;lat;lon;timestamp;pressure;altitude;pressure_sealevel;temperature;humidity
34674;BME280;20879;55.668;37.858;2023-05-23T00:01:41;100156.84;;;13.09;81.50
34674;BME280;20879;55.668;37.858;2023-05-23T00:04:11;100149.13;;;13.05;81.24
34674;BME280;20879;55.668;37.858;2023-05-23T00:06:49;100155.25;;;13.02;81.31
34674;BME280;20879;55.668;37.858;2023-05-23T00:09:24;100156.97;;;13.03;81.27
34674;BME280;20879;55.668;37.858;2023-05-23T00:11:54;100159.59;;;13.02;81.25
34674;BME280;20879;55.668;37.858;2023-05-23T00:14:23;100162.19;;;13.02;81.33
34674;BME280;20879;55.668;37.858;2023-05-23T00:16:55;100154.59;;;12.89;81.65
34674;BME280;20879;55.668;37.858;2023-05-23T00:19:30;100157.16;;;12.91;81.26
34674;BME280;20879;55.668;37.858;2023-05-23T00:22:02;100163.25;;;12.91;80.99
34674;BME280;20879;55.668;37.858;2023-05-23T00:24:31;100161.50;;;12.90;81.20
34674;BME280;20879;55.668;37.858;2023-05-23T00:27:01;100162.31;;;12.94;80.58
34674;BME280;20879;55.668;37.858;2023-05-23T00:29:30;100160.59;;;12.94;80.59
34674;BME280;20879;55.668;37.858;2023-05-23T00:32:01;100162.22;;;12.99;80.24
34674;BME280;20879;55.668;37.858;2023-05-23T00:34:31;100158.84;;;12.95;80.36
34674;BME280;20879;55.668;37.858;2023-05-23T00:37:01;100158.03;;;12.91;80.20
34674;BME280;20879;55.668;37.858;2023-05-23T00:39:30;100153.72;;;12.90;79.66
34674;BME280;20879;55.668;37.858;2023-05-23T00:42:03;100142.59;;;12.82;79.99
34674;BME280;20879;55.668;37.858;2023-05-23T00:44:33;100155.38;;;12.94;79.39
34674;BME280;20879;55.668;37.858;2023-05-23T00:47:06;100152.59;;;13.04;78.09
34674;BME280;20879;55.668;37.858;2023-05-23T00:49:37;100149.19;;;13.02;78.09
34674;BME280;20879;55.668;37.858;2023-05-23T00:52:17;100149.19;;;13.02;77.93
34674;BME280;20879;55.668;37.858;2023-05-23T00:54:47;100149.13;;;13.05;77.48
34674;BME280;20879;55.668;37.858;2023-05-23T00:57:17;100151.56;;;13.14;76.96
34674;BME280;20879;55.668;37.858;2023-05-23T00:59:47;100154.97;;;13.18;76.14
34674;BME280;20879;55.668;37.858;2023-05-23T01:02:19;100147.97;;;13.20;75.74
34674;BME280;20879;55.668;37.858;2023-05-23T01:04:49;100141.88;;;13.22;75.86
34674;BME280;20879;55.668;37.858;2023-05-23T01:07:25;100142.66;;;13.26;74.78
34674;BME280;20879;55.668;37.858;2023-05-23T01:09:55;100136.53;;;13.28;73.96
34674;BME280;20879;55.668;37.858;2023-05-23T01:12:31;100139.75;;;13.43;72.98
34674;BME280;20879;55.668;37.858;2023-05-23T01:15:06;100137.28;;;13.37;73.39
34674;BME280;20879;55.668;37.858;2023-05-23T01:17:50;100151.81;;;13.47;72.32
34674;BME280;20879;55.668;37.858;2023-05-23T01:20:25;100149.94;;;13.54;71.73
34674;BME280;20879;55.668;37.858;2023-05-23T01:23:12;100139.56;;;13.52;71.74
34674;BME280;20879;55.668;37.858;2023-05-23T01:25:53;100143.13;;;13.48;72.33
34674;BME280;20879;55.668;37.858;2023-05-23T01:28:31;100137.84;;;13.51;72.04
34674;BME280;20879;55.668;37.858;2023-05-23T01:31:03;100144.78;;;13.52;71.90
34674;BME280;20879;55.668;37.858;2023-05-23T01:33:33;100131.91;;;13.46;72.57
34674;BME280;20879;55.668;37.858;2023-05-23T01:36:09;100136.88;;;13.57;71.78
34674;BME280;20879;55.668;37.858;2023-05-23T01:38:40;100144.59;;;13.60;71.24
34674;BME280;20879;55.668;37.858;2023-05-23T01:41:10;100135.06;;;13.60;70.89
34674;BME280;20879;55.668;37.858;2023-05-23T01:43:42;100129.91;;;13.59;71.03
34674;BME280;20879;55.668;37.858;2023-05-23T01:46:15;100136.78;;;13.60;71.49
34674;BME280;20879;55.668;37.858;2023-05-23T01:48:45;100137.84;;;13.51;71.51
34674;BME280;20879;55.668;37.858;2023-05-23T01:51:21;100133.53;;;13.52;71.44
34674;BME280;20879;55.668;37.858;2023-05-23T01:53:56;100142.06;;;13.57;70.93
34674;BME280;20879;55.668;37.858;2023-05-23T01:56:26;100143.63;;;13.66;70.93
34674;BME280;20879;55.668;37.858;2023-05-23T01:58:58;100143.53;;;13.70;70.47
34674;BME280;20879;55.668;37.858;2023-05-23T02:01:35;100126.66;;;13.48;71.70
34674;BME280;20879;55.668;37.858;2023-05-23T02:04:06;100136.03;;;13.56;71.42
34674;BME280;20879;55.668;37.858;2023-05-23T02:06:35;100136.03;;;13.56;71.01
34674;BME280;20879;55.668;37.858;2023-05-23T02:09:05;100125.72;;;13.52;71.59
34674;BME280;20879;55.668;37.858;2023-05-23T02:11:34;100130.19;;;13.45;72.41
34674;BME280;20879;55.668;37.858;2023-05-23T02:14:11;100136.25;;;13.44;71.82
34674;BME280;20879;55.668;37.858;2023-05-23T02:16:41;100134.63;;;13.40;72.48
34674;BME280;20879;55.668;37.858;2023-05-23T02:19:16;100137.00;;;13.51;71.98
34674;BME280;20879;55.668;37.858;2023-05-23T02:21:53;100112.03;;;13.42;71.51
34674;BME280;20879;55.668;37.858;2023-05-23T02:24:23;100129.94;;;13.57;71.76
34674;BME280;20879;55.668;37.858;2023-05-23T02:26:58;100129.88;;;13.60;70.97
34674;BME280;20879;55.668;37.858;2023-05-23T02:29:29;100136.03;;;13.56;71.29
34674;BME280;20879;55.668;37.858;2023-05-23T02:31:59;100136.91;;;13.55;71.02
34674;BME280;20879;55.668;37.858;2023-05-23T02:34:33;100136.72;;;13.63;70.58
34674;BME280;20879;55.668;37.858;2023-05-23T02:37:04;100141.22;;;13.56;71.17
34674;BME280;20879;55.668;37.858;2023-05-23T02:39:35;100138.50;;;13.62;71.01
34674;BME280;20879;55.668;37.858;2023-05-23T02:42:05;100135.72;;;13.70;70.03
34674;BME280;20879;55.668;37.858;2023-05-23T02:44:37;100139.00;;;13.80;69.77
34674;BME280;20879;55.668;37.858;2023-05-23T02:47:06;100133.63;;;13.86;69.21
34674;BME280;20879;55.668;37.858;2023-05-23T02:49:41;100148.38;;;13.87;68.88
34674;BME280;20879;55.668;37.858;2023-05-23T02:52:12;100155.13;;;13.96;69.22
34674;BME280;20879;55.668;37.858;2023-05-23T02:54:48;100149.06;;;13.95;69.29
34674;BME280;20879;55.668;37.858;2023-05-23T02:57:18;100141.94;;;14.04;69.34
34674;BME280;20879;55.668;37.858;2023-05-23T02:59:49;100134.81;;;14.12;69.31
34674;BME280;20879;55.668;37.858;2023-05-23T03:02:19;100137.22;;;14.20;68.90
34674;BME280;20879;55.668;37.858;2023-05-23T03:04:49;100147.41;;;14.29;68.67
34674;BME280;20879;55.668;37.858;2023-05-23T03:07:18;100140.31;;;14.36;68.33
34674;BME280;20879;55.668;37.858;2023-05-23T03:09:55;100134.88;;;14.45;68.01
34674;BME280;20879;55.668;37.858;2023-05-23T03:12:24;100139.09;;;14.50;67.84
34674;BME280;20879;55.668;37.858;2023-05-23T03:15:02;100149.34;;;14.57;67.19
34674;BME280;20879;55.668;37.858;2023-05-23T03:17:38;100128.41;;;14.63;67.64
34674;BME280;20879;55.668;37.858;2023-05-23T03:20:09;100134.38;;;14.66;67.07
34674;BME280;20879;55.668;37.858;2023-05-23T03:22:45;100136.00;;;14.72;66.57
34674;BME280;20879;55.668;37.858;2023-05-23T03:25:16;100121.19;;;14.73;67.01
34674;BME280;20879;55.668;37.858;2023-05-23T03:27:46;100127.88;;;14.83;66.69
34674;BME280;20879;55.668;37.858;2023-05-23T03:30:18;100130.25;;;14.92;66.18
34674;BME280;20879;55.668;37.858;2023-05-23T03:32:53;100129.13;;;15.02;66.02
34674;BME280;20879;55.668;37.858;2023-05-23T03:35:29;100128.94;;;15.09;66.26
34674;BME280;20879;55.668;37.858;2023-05-23T03:37:58;100139.19;;;15.15;66.08
34674;BME280;20879;55.668;37.858;2023-05-23T03:40:28;100126.91;;;15.20;65.63
34674;BME280;20879;55.668;37.858;2023-05-23T03:43:04;100128.59;;;15.21;66.01
34674;BME280;20879;55.668;37.858;2023-05-23T03:45:44;100117.50;;;15.14;65.47
34674;BME280;20879;55.668;37.858;2023-05-23T03:48:16;100129.69;;;15.12;65.90
34674;BME280;20879;55.668;37.858;2023-05-23T03:50:47;100134.41;;;14.99;66.00
34674;BME280;20879;55.668;37.858;2023-05-23T03:53:17;100131.19;;;14.90;66.47
34674;BME280;20879;55.668;37.858;2023-05-23T03:56:06;100128.53;;;14.91;66.49
34674;BME280;20879;55.668;37.858;2023-05-23T03:58:42;100118.91;;;14.93;66.11
34674;BME280;20879;55.668;37.858;2023-05-23T04:01:17;100119.97;;;14.86;67.25
34674;BME280;20879;55.668;37.858;2023-05-23T04:04:02;100118.19;;;14.88;67.67
34674;BME280;20879;55.668;37.858;2023-05-23T04:06:34;100113.88;;;14.87;67.40
34674;BME280;20879;55.668;37.858;2023-05-23T04:09:10;100129.22;;;14.99;66.89
34674;BME280;20879;55.668;37.858;2023-05-23T04:11:43;100123.81;;;15.06;66.33
34674;BME280;20879;55.668;37.858;2023-05-23T04:14:19;100119.97;;;15.19;66.36
34674;BME280;20879;55.668;37.858;2023-05-23T04:16:51;100116.19;;;15.29;65.98
34674;BME280;20879;55.668;37.858;2023-05-23T04:19:22;100119.56;;;15.34;65.62
34674;BME280;20879;55.668;37.858;2023-05-23T04:21:53;100130.47;;;15.47;65.43
34674;BME280;20879;55.668;37.858;2023-05-23T04:24:22;100132.88;;;15.55;65.08
34674;BME280;20879;55.668;37.858;2023-05-23T04:26:52;100133.25;;;15.71;64.78
34674;BME280;20879;55.668;37.858;2023-05-23T04:29:23;100131.38;;;15.76;64.32
34674;BME280;20879;55.668;37.858;2023-05-23T04:31:56;100122.75;;;15.74;64.41
34674;BME280;20879;55.668;37.858;2023-05-23T04:34:27;100120.09;;;15.76;64.78
34674;BME280;20879;55.668;37.858;2023-05-23T04:37:01;100120.44;;;15.63;65.30
34674;BME280;20879;55.668;37.858;2023-05-23T04:39:31;100116.25;;;15.58;65.58
34674;BME280;20879;55.668;37.858;2023-05-23T04:42:14;100115.69;;;15.48;66.05
34674;BME280;20879;55.668;37.858;2023-05-23T04:45:01;100121.94;;;15.42;66.51
34674;BME280;20879;55.668;37.858;2023-05-23T04:47:47;100121.25;;;15.35;66.59
34674;BME280;20879;55.668;37.858;2023-05-23T04:50:33;100138.06;;;15.25;67.47
34674;BME280;20879;55.668;37.858;2023-05-23T04:53:03;100120.47;;;15.00;68.25
34674;BME280;20879;55.668;37.858;2023-05-23T04:55:39;100156.09;;;15.01;68.93
34674;BME280;20879;55.668;37.858;2023-05-23T04:58:13;100151.63;;;15.05;69.09
34674;BME280;20879;55.668;37.858;2023-05-23T05:00:43;100148.78;;;15.14;68.40
34674;BME280;20879;55.668;37.858;2023-05-23T05:03:17;100164.88;;;15.30;68.00
34674;BME280;20879;55.668;37.858;2023-05-23T05:05:47;100150.13;;;15.59;67.14
34674;BME280;20879;55.668;37.858;2023-05-23T05:08:17;100155.34;;;15.90;66.37
34674;BME280;20879;55.668;37.858;2023-05-23T05:10:48;100150.84;;;16.24;65.80
34674;BME280;20879;55.668;37.858;2023-05-23T05:13:22;100149.84;;;16.55;64.49
34674;BME280;20879;55.668;37.858;2023-05-23T05:15:54;100150.03;;;16.75;63.55
34674;BME280;20879;55.668;37.858;2023-05-23T05:18:27;100153.16;;;16.87;62.96
34674;BME280;20879;55.668;37.858;2023-05-23T05:20:58;100154.31;;;16.78;63.53
34674;BME280;20879;55.668;37.858;2023-05-23T05:23:35;100150.03;;;16.75;63.83
34674;BME280;20879;55.668;37.858;2023-05-23T05:26:06;100151.75;;;16.76;63.75
34674;BME280;20879;55.668;37.858;2023-05-23T05:28:37;100159.00;;;16.68;64.28
34674;BME280;20879;55.668;37.858;2023-05-23T05:31:13;100149.81;;;16.82;64.11
34674;BME280;20879;55.668;37.858;2023-05-23T05:33:45;100148.88;;;16.84;64.17
34674;BME280;20879;55.668;37.858;2023-05-23T05:36:16;100148.78;;;16.87;63.88
34674;BME280;20879;55.668;37.858;2023-05-23T05:38:46;100133.91;;;16.89;63.74
34674;BME280;20879;55.668;37.858;2023-05-23T05:41:22;100144.06;;;16.99;63.33
34674;BME280;20879;55.668;37.858;2023-05-23T05:43:53;100145.69;;;17.01;63.41
34674;BME280;20879;55.668;37.858;2023-05-23T05:46:24;100134.28;;;17.04;63.21
34674;BME280;20879;55.668;37.858;2023-05-23T05:48:56;100138.53;;;17.06;63.27
34674;BME280;20879;55.668;37.858;2023-05-23T05:51:25;100133.53;;;17.00;63.68
34674;BME280;20879;55.668;37.858;2023-05-23T05:53:55;100137.16;;;16.96;64.19
34674;BME280;20879;55.668;37.858;2023-05-23T05:56:30;100135.44;;;16.95;64.51
34674;BME280;20879;55.668;37.858;2023-05-23T05:59:00;100133.06;;;16.89;64.13
34674;BME280;20879;55.668;37.858;2023-05-23T06:01:31;100128.72;;;16.88;63.70
34674;BME280;20879;55.668;37.858;2023-05-23T06:04:03;100127.72;;;16.92;63.79
34674;BME280;20879;55.668;37.858;2023-05-23T06:06:38;100120.47;;;17.00;63.77
34674;BME280;20879;55.668;37.858;2023-05-23T06:09:09;100127.97;;;17.09;63.56
34674;BME280;20879;55.668;37.858;2023-05-23T06:11:38;100124.13;;;17.20;63.43
34674;BME280;20879;55.668;37.858;2023-05-23T06:14:14;100113.09;;;17.35;62.33
34674;BME280;20879;55.668;37.858;2023-05-23T06:16:50;100112.81;;;17.43;61.94
34674;BME280;20879;55.668;37.858;2023-05-23T06:19:21;100110.44;;;17.37;62.19
34674;BME280;20879;55.668;37.858;2023-05-23T06:21:55;100115.44;;;17.43;62.08
34674;BME280;20879;55.668;37.858;2023-05-23T06:24:30;100098.06;;;17.40;61.63
34674;BME280;20879;55.668;37.858;2023-05-23T06:27:10;100112.16;;;17.60;61.91
34674;BME280;20879;55.668;37.858;2023-05-23T06:29:40;100102.56;;;17.82;60.97
34674;BME280;20879;55.668;37.858;2023-05-23T06:32:09;100096.63;;;18.23;60.60
34674;BME280;20879;55.668;37.858;2023-05-23T06:34:41;100096.06;;;18.58;59.17
34674;BME280;20879;55.668;37.858;2023-05-23T06:37:10;100090.03;;;19.17;59.14
34674;BME280;20879;55.668;37.858;2023-05-23T06:39:40;100083.50;;;19.45;57.56
34674;BME280;20879;55.668;37.858;2023-05-23T06:42:09;100072.31;;;19.61;56.26
34674;BME280;20879;55.668;37.858;2023-05-23T06:45:17;100069.47;;;19.84;55.06
34674;BME280;20879;55.668;37.858;2023-05-23T06:47:51;100073.50;;;19.92;54.94
34674;BME280;20879;55.668;37.858;2023-05-23T06:50:23;100073.38;;;20.12;54.47
34674;BME280;20879;55.668;37.858;2023-05-23T06:52:57;100069.38;;;20.57;53.82
34674;BME280;20879;55.668;37.858;2023-05-23T06:55:26;100064.59;;;20.99;52.60
34674;BME280;20879;55.668;37.858;2023-05-23T06:57:57;100068.75;;;21.37;51.58
34674;BME280;20879;55.668;37.858;2023-05-23T07:00:26;100058.47;;;21.64;50.92
34674;BME280;20879;55.668;37.858;2023-05-23T07:03:14;100057.69;;;22.10;49.49
34674;BME280;20879;55.668;37.858;2023-05-23T07:05:46;100061.94;;;22.43;49.04
34674;BME280;20879;55.668;37.858;2023-05-23T07:08:22;100062.09;;;22.70;48.64
34674;BME280;20879;55.668;37.858;2023-05-23T07:11:03;100062.38;;;22.80;47.59
34674;BME280;20879;55.668;37.858;2023-05-23T07:13:42;100058.22;;;22.61;48.42
34674;BME280;20879;55.668;37.858;2023-05-23T07:16:20;100059.03;;;22.62;48.50
34674;BME280;20879;55.668;37.858;2023-05-23T07:19:00;100063.31;;;22.64;47.81
34674;BME280;20879;55.668;37.858;2023-05-23T07:21:36;100057.84;;;22.96;47.77
34674;BME280;20879;55.668;37.858;2023-05-23T07:24:06;100059.72;;;23.09;47.18
34674;BME280;20879;55.668;37.858;2023-05-23T07:26:37;100064.53;;;23.31;46.95
34674;BME280;20879;55.668;37.858;2023-05-23T07:29:06;100064.00;;;23.26;47.05
34674;BME280;20879;55.668;37.858;2023-05-23T07:31:41;100058.63;;;23.13;47.06
34674;BME280;20879;55.668;37.858;2023-05-23T07:34:12;100070.09;;;22.68;47.61
34674;BME280;20879;55.668;37.858;2023-05-23T07:36:52;100075.25;;;22.56;47.88
34674;BME280;20879;55.668;37.858;2023-05-23T07:39:24;100068.44;;;22.51;48.63
34674;BME280;20879;55.668;37.858;2023-05-23T07:41:57;100070.25;;;22.51;48.55
34674;BME280;20879;55.668;37.858;2023-05-23T07:44:32;100073.31;;;22.88;48.40
34674;BME280;20879;55.668;37.858;2023-05-23T07:47:03;100075.41;;;22.97;47.49
34674;BME280;20879;55.668;37.858;2023-05-23T07:49:33;100066.16;;;22.76;48.27
34674;BME280;20879;55.668;37.858;2023-05-23T07:52:06;100076.41;;;22.80;48.59
34674;BME280;20879;55.668;37.858;2023-05-23T07:54:38;100076.97;;;23.00;48.07
34674;BME280;20879;55.668;37.858;2023-05-23T07:57:08;100077.56;;;23.05;47.58
34674;BME280;20879;55.668;37.858;2023-05-23T07:59:44;100074.88;;;23.21;47.35
34674;BME280;20879;55.668;37.858;2023-05-23T08:02:13;100079.56;;;23.16;47.39
34674;BME280;20879;55.668;37.858;2023-05-23T08:04:48;100082.41;;;22.68;48.48
34674;BME280;20879;55.668;37.858;2023-05-23T08:07:21;100077.06;;;22.55;48.99
34674;BME280;20879;55.668;37.858;2023-05-23T08:09:55;100078.16;;;22.51;49.62
34674;BME280;20879;55.668;37.858;2023-05-23T08:12:25;100080.41;;;22.43;49.68
34674;BME280;20879;55.668;37.858;2023-05-23T08:15:12;100082.97;;;22.28;49.99
34674;BME280;20879;55.668;37.858;2023-05-23T08:17:51;100085.38;;;22.17;50.43
34674;BME280;20879;55.668;37.858;2023-05-23T08:20:23;100081.75;;;22.04;50.55
34674;BME280;20879;55.668;37.858;2023-05-23T08:23:00;100074.72;;;21.88;51.06
34674;BME280;20879;55.668;37.858;2023-05-23T08:25:30;100078.22;;;22.19;50.76
34674;BME280;20879;55.668;37.858;2023-05-23T08:28:01;100081.44;;;22.40;50.94
34674;BME280;20879;55.668;37.858;2023-05-23T08:30:56;100079.88;;;22.06;51.33
34674;BME280;20879;55.668;37.858;2023-05-23T08:33:28;100073.53;;;21.78;52.43
34674;BME280;20879;55.668;37.858;2023-05-23T08:35:58;100083.25;;;21.61;53.11
34674;BME280;20879;55.668;37.858;2023-05-23T08:38:38;100088.16;;;21.52;53.48
34674;BME280;20879;55.668;37.858;2023-05-23T08:41:33;100081.28;;;21.32;54.58
34674;BME280;20879;55.668;37.858;2023-05-23T08:44:12;100075.47;;;20.93;56.07
34674;BME280;20879;55.668;37.858;2023-05-23T08:46:49;100060.41;;;20.44;57.64
34674;BME280;20879;55.668;37.858;2023-05-23T08:49:37;100070.88;;;19.92;60.36
34674;BME280;20879;55.668;37.858;2023-05-23T08:52:11;100069.59;;;19.62;61.23
34674;BME280;20879;55.668;37.858;2023-05-23T08:54:50;100086.34;;;19.41;62.16
34674;BME280;20879;55.668;37.858;2023-05-23T08:57:26;100086.13;;;19.26;63.05
34674;BME280;20879;55.668;37.858;2023-05-23T09:00:03;100099.53;;;19.20;64.56
34674;BME280;20879;55.668;37.858;2023-05-23T09:02:43;100093.06;;;19.08;65.00
34674;BME280;20879;55.668;37.858;2023-05-23T09:05:42;100096.94;;;18.99;66.10
34674;BME280;20879;55.668;37.858;2023-05-23T09:08:15;100096.94;;;18.99;66.80
34674;BME280;20879;55.668;37.858;2023-05-23T09:10:47;100101.31;;;18.99;66.56
34674;BME280;20879;55.668;37.858;2023-05-23T09:13:19;100095.97;;;19.02;66.36
34674;BME280;20879;55.668;37.858;2023-05-23T09:16:01;100102.00;;;19.04;66.53
34674;BME280;20879;55.668;37.858;2023-05-23T09:18:40;100106.47;;;19.02;66.08
34674;BME280;20879;55.668;37.858;2023-05-23T09:21:13;100101.00;;;19.07;66.32
34674;BME280;20879;55.668;37.858;2023-05-23T09:23:53;100101.38;;;19.37;65.43
34674;BME280;20879;55.668;37.858;2023-05-23T09:26:27;100111.47;;;19.65;65.62
34674;BME280;20879;55.668;37.858;2023-05-23T09:29:04;100109.78;;;19.64;64.60
34674;BME280;20879;55.668;37.858;2023-05-23T09:31:35;100105.88;;;19.73;65.02
34674;BME280;20879;55.668;37.858;2023-05-23T09:34:05;100099.84;;;19.90;64.20
34674;BME280;20879;55.668;37.858;2023-05-23T09:36:40;100109.94;;;20.17;63.98
34674;BME280;20879;55.668;37.858;2023-05-23T09:39:15;100104.56;;;20.37;64.00
34674;BME280;20879;55.668;37.858;2023-05-23T09:42:05;100111.97;;;20.64;62.83
34674;BME280;20879;55.668;37.858;2023-05-23T09:44:40;100096.94;;;20.68;63.23
34674;BME280;20879;55.668;37.858;2023-05-23T09:47:10;100107.97;;;20.74;61.74
34674;BME280;20879;55.668;37.858;2023-05-23T09:49:40;100111.91;;;20.48;61.72
34674;BME280;20879;55.668;37.858;2023-05-23T09:52:11;100110.06;;;20.50;61.77
34674;BME280;20879;55.668;37.858;2023-05-23T09:54:41;100108.09;;;20.19;62.71
34674;BME280;20879;55.668;37.858;2023-05-23T09:57:15;100101.53;;;20.28;62.86
34674;BME280;20879;55.668;37.858;2023-05-23T09:59:51;100106.94;;;20.42;63.20
34674;BME280;20879;55.668;37.858;2023-05-23T10:02:53;100105.88;;;20.46;63.22
34674;BME280;20879;55.668;37.858;2023-05-23T10:05:39;100108.63;;;20.08;64.27
34674;BME280;20879;55.668;37.858;2023-05-23T10:08:19;100106.59;;;19.96;65.79
34674;BME280;20879;55.668;37.858;2023-05-23T10:14:05;100114.03;;;19.48;67.17
34674;BME280;20879;55.668;37.858;2023-05-23T10:16:41;100114.19;;;19.45;67.99
34674;BME280;20879;55.668;37.858;2023-05-23T10:19:23;100113.91;;;19.51;68.25
34674;BME280;20879;55.668;37.858;2023-05-23T10:21:58;100106.31;;;19.64;68.48
34674;BME280;20879;55.668;37.858;2023-05-23T10:27:13;100115.03;;;19.83;68.11
34674;BME280;20879;55.668;37.858;2023-05-23T10:29:45;100117.72;;;20.01;68.25
34674;BME280;20879;55.668;37.858;2023-05-23T10:32:15;100110.63;;;20.20;67.17
34674;BME280;20879;55.668;37.858;2023-05-23T10:34:55;100105.94;;;20.27;67.92
34674;BME280;20879;55.668;37.858;2023-05-23T10:37:37;100116.94;;;20.35;67.24
34674;BME280;20879;55.668;37.858;2023-05-23T10:40:20;100113.75;;;20.29;68.56
34674;BME280;20879;55.668;37.858;2023-05-23T10:43:01;100098.63;;;19.97;68.53
34674;BME280;20879;55.668;37.858;2023-05-23T10:45:51;100095.34;;;19.35;69.99
34674;BME280;20879;55.668;37.858;2023-05-23T10:48:40;100117.09;;;19.18;72.40
34674;BME280;20879;55.668;37.858;2023-05-23T10:51:11;100079.22;;;18.63;72.79
34674;BME280;20879;55.668;37.858;2023-05-23T10:53:52;100120.34;;;18.63;75.14
34674;BME280;20879;55.668;37.858;2023-05-23T10:56:23;100122.41;;;18.55;74.82
34674;BME280;20879;55.668;37.858;2023-05-23T10:58:52;100120.78;;;18.52;75.01
34674;BME280;20879;55.668;37.858;2023-05-23T11:01:26;100118.63;;;18.62;76.44
34674;BME280;20879;55.668;37.858;2023-05-23T11:03:56;100098.63;;;18.59;75.69
34674;BME280;20879;55.668;37.858;2023-05-23T11:06:31;100120.41;;;18.82;75.35
34674;BME280;20879;55.668;37.858;2023-05-23T11:09:08;100122.16;;;18.81;74.76
34674;BME280;20879;55.668;37.858;2023-05-23T11:11:59;100118.56;;;18.84;76.99
34674;BME280;20879;55.668;37.858;2023-05-23T11:14:56;100114.44;;;18.78;75.78
34674;BME280;20879;55.668;37.858;2023-05-23T11:20:36;100120.09;;;19.10;75.62
34674;BME280;20879;55.668;37.858;2023-05-23T11:23:07;100115.38;;;19.37;74.21
34674;BME280;20879;55.668;37.858;2023-05-23T11:25:43;100108.34;;;19.57;74.13
34674;BME280;20879;55.668;37.858;2023-05-23T11:28:13;100109.41;;;19.53;73.51
34674;BME280;20879;55.668;37.858;2023-05-23T11:30:43;100110.13;;;19.37;74.36
34674;BME280;20879;55.668;37.858;2023-05-23T11:33:18;100113.97;;;19.49;74.00
34674;BME280;20879;55.668;37.858;2023-05-23T11:35:47;100112.19;;;19.88;71.94
34674;BME280;20879;55.668;37.858;2023-05-23T11:38:23;100120.31;;;19.83;72.45
34674;BME280;20879;55.668;37.858;2023-05-23T11:40:53;100111.66;;;19.81;72.02
34674;BME280;20879;55.668;37.858;2023-05-23T11:43:22;100108.66;;;19.89;72.62
34674;BME280;20879;55.668;37.858;2023-05-23T11:45:52;100104.50;;;20.02;72.03
34674;BME280;20879;55.668;37.858;2023-05-23T11:48:24;100102.56;;;20.25;71.41
34674;BME280;20879;55.668;37.858;2023-05-23T11:50:53;100097.81;;;20.49;70.48
34674;BME280;20879;55.668;37.858;2023-05-23T11:56:18;100090.53;;;20.89;68.32
34674;BME280;20879;55.668;37.858;2023-05-23T11:58:48;100069.31;;;20.76;67.99
34674;BME280;20879;55.668;37.858;2023-05-23T12:01:17;100078.94;;;20.58;67.65
34674;BME280;20879;55.668;37.858;2023-05-23T12:03:50;100075.78;;;20.52;67.86
34674;BME280;20879;55.668;37.858;2023-05-23T12:06:24;100072.44;;;20.48;67.78
34674;BME280;20879;55.668;37.858;2023-05-23T12:08:54;100062.88;;;20.65;67.62
34674;BME280;20879;55.668;37.858;2023-05-23T12:11:30;100052.47;;;20.79;66.79
34674;BME280;20879;55.668;37.858;2023-05-23T12:14:00;100059.16;;;20.69;66.87
34674;BME280;20879;55.668;37.858;2023-05-23T12:16:34;100055.53;;;20.71;67.16
34674;BME280;20879;55.668;37.858;2023-05-23T12:19:12;100060.00;;;20.87;66.37
34674;BME280;20879;55.668;37.858;2023-05-23T12:21:54;100050.59;;;20.99;65.56
34674;BME280;20879;55.668;37.858;2023-05-23T12:24:23;100048.75;;;20.83;65.31
34674;BME280;20879;55.668;37.858;2023-05-23T12:26:55;100048.94;;;20.80;65.76
34674;BME280;20879;55.668;37.858;2023-05-23T12:29:28;100049.75;;;21.14;65.22
34674;BME280;20879;55.668;37.858;2023-05-23T12:32:07;100036.19;;;21.22;64.06
34674;BME280;20879;55.668;37.858;2023-05-23T12:34:42;100036.09;;;21.07;63.99
34674;BME280;20879;55.668;37.858;2023-05-23T12:37:12;100030.97;;;20.88;63.82
34674;BME280;20879;55.668;37.858;2023-05-23T12:39:47;100029.25;;;20.87;64.56
34674;BME280;20879;55.668;37.858;2023-05-23T12:42:16;100019.72;;;20.85;64.11
34674;BME280;20879;55.668;37.858;2023-05-23T12:51:15;100035.56;;;21.01;63.87
34674;BME280;20879;55.668;37.858;2023-05-23T12:53:56;100019.22;;;21.27;63.46
34674;BME280;20879;55.668;37.858;2023-05-23T12:56:25;100023.69;;;21.25;63.09
34674;BME280;20879;55.668;37.858;2023-05-23T12:58:55;100035.94;;;21.10;63.84
34674;BME280;20879;55.668;37.858;2023-05-23T13:01:25;100031.84;;;21.05;63.63
34674;BME280;20879;55.668;37.858;2023-05-23T13:04:00;100045.44;;;21.13;63.56
34674;BME280;20879;55.668;37.858;2023-05-23T13:06:31;100024.22;;;21.32;63.37
34674;BME280;20879;55.668;37.858;2023-05-23T13:09:01;100026.59;;;21.21;64.06
34674;BME280;20879;55.668;37.858;2023-05-23T13:11:36;100023.00;;;21.06;63.72
34674;BME280;20879;55.668;37.858;2023-05-23T13:14:06;100018.06;;;20.84;64.22
34674;BME280;20879;55.668;37.858;2023-05-23T13:16:35;100026.19;;;20.62;64.60
34674;BME280;20879;55.668;37.858;2023-05-23T13:19:10;100028.59;;;20.49;65.06
34674;BME280;20879;55.668;37.858;2023-05-23T13:21:42;100029.59;;;20.46;65.46
34674;BME280;20879;55.668;37.858;2023-05-23T13:24:17;100020.78;;;20.47;65.62
34674;BME280;20879;55.668;37.858;2023-05-23T13:26:47;100012.44;;;20.39;66.24
34674;BME280;20879;55.668;37.858;2023-05-23T13:29:21;100016.78;;;20.22;66.65
34674;BME280;20879;55.668;37.858;2023-05-23T13:31:51;100020.81;;;20.12;67.62
34674;BME280;20879;55.668;37.858;2023-05-23T13:34:20;100026.59;;;20.19;67.34